sensor_id;sensor_type;location;lat;lon;timestamp;P1;durP1;ratioP1;P2;durP2;ratioP2
2416;SDS011;1219;48.736;9.330;2022-10-31T00:02:21;9.77;;;6.90;;
2416;SDS011;1219;48.736;9.330;2022-10-31T00:04:47;8.03;;;6.77;;
2416;SDS011;1219;48.736;9.330;2022-10-31T00:07:13;10.70;;;7.00;;
2416;SDS011;1219;48.736;9.330;2022-10-31T00:09:39;10.43;;;7.97;;
2416;SDS011;1219;48.736;9.330;2022-10-31T00:12:05;11.93;;;7.90;;
2416;SDS011;1219;48.736;9.330;2022-10-31T00:14:31;11.00;;;7.50;;
2416;SDS011;1219;48.736;9.330;2022-10-31T00:16:57;12.17;;;6.87;;
2416;SDS011;1219;48.736;9.330;2022-10-31T00:19:23;8.87;;;6.90;;
2416;SDS011;1219;48.736;9.330;2022-10-31T00:21:51;10.17;;;7.20;;
2416;SDS011;1219;48.736;9.330;2022-10-31T00:24:17;8.07;;;6.40;;
2416;SDS011;1219;48.736;9.330;2022-10-31T00:26:42;10.60;;;6.53;;
2416;SDS011;1219;48.736;9.330;2022-10-31T00:29:09;7.17;;;6.47;;
2416;SDS011;1219;48.736;9.330;2022-10-31T00:31:35;11.90;;;8.50;;
2416;SDS011;1219;48.736;9.330;2022-10-31T00:34:01;10.17;;;6.17;;
2416;SDS011;1219;48.736;9.330;2022-10-31T00:36:28;11.03;;;6.93;;
2416;SDS011;1219;48.736;9.330;2022-10-31T00:38:54;8.00;;;7.20;;
2416;SDS011;1219;48.736;9.330;2022-10-31T00:41:20;11.43;;;6.63;;
2416;SDS011;1219;48.736;9.330;2022-10-31T00:43:46;9.57;;;7.33;;
2416;SDS011;1219;48.736;9.330;2022-10-31T00:46:12;10.70;;;7.67;;
2416;SDS011;1219;48.736;9.330;2022-10-31T00:48:38;8.97;;;6.40;;
2416;SDS011;1219;48.736;9.330;2022-10-31T00:51:05;8.60;;;6.13;;
2416;SDS011;1219;48.736;9.330;2022-10-31T00:53:31;7.20;;;6.50;;
2416;SDS011;1219;48.736;9.330;2022-10-31T00:55:57;9.63;;;6.80;;
2416;SDS011;1219;48.736;9.330;2022-10-31T00:58:23;9.93;;;7.23;;
2416;SDS011;1219;48.736;9.330;2022-10-31T01:00:49;8.30;;;6.60;;
2416;SDS011;1219;48.736;9.330;2022-10-31T01:03:22;10.77;;;7.60;;
2416;SDS011;1219;48.736;9.330;2022-10-31T01:06:07;9.23;;;6.53;;
2416;SDS011;1219;48.736;9.330;2022-10-31T01:08:34;9.17;;;6.33;;
2416;SDS011;1219;48.736;9.330;2022-10-31T01:11:02;10.87;;;6.33;;
2416;SDS011;1219;48.736;9.330;2022-10-31T01:13:28;10.13;;;6.20;;
2416;SDS011;1219;48.736;9.330;2022-10-31T01:15:55;9.90;;;6.50;;
2416;SDS011;1219;48.736;9.330;2022-10-31T01:18:21;8.40;;;6.90;;
2416;SDS011;1219;48.736;9.330;2022-10-31T01:20:47;11.33;;;7.47;;
2416;SDS011;1219;48.736;9.330;2022-10-31T01:23:13;8.60;;;6.20;;
2416;SDS011;1219;48.736;9.330;2022-10-31T01:25:39;9.90;;;7.00;;
2416;SDS011;1219;48.736;9.330;2022-10-31T01:28:05;13.43;;;6.83;;
2416;SDS011;1219;48.736;9.330;2022-10-31T01:30:31;19.33;;;7.97;;
2416;SDS011;1219;48.736;9.330;2022-10-31T01:32:57;7.80;;;6.80;;
2416;SDS011;1219;48.736;9.330;2022-10-31T01:35:23;8.40;;;6.47;;
2416;SDS011;1219;48.736;9.330;2022-10-31T01:37:49;9.23;;;6.33;;
2416;SDS011;1219;48.736;9.330;2022-10-31T01:40:15;9.13;;;6.50;;
2416;SDS011;1219;48.736;9.330;2022-10-31T01:42:41;7.53;;;6.80;;
2416;SDS011;1219;48.736;9.330;2022-10-31T01:45:09;9.43;;;7.30;;
2416;SDS011;1219;48.736;9.330;2022-10-31T01:47:45;10.50;;;6.30;;
2416;SDS011;1219;48.736;9.330;2022-10-31T01:50:24;7.70;;;7.03;;
2416;SDS011;1219;48.736;9.330;2022-10-31T01:52:52;20.33;;;7.50;;
2416;SDS011;1219;48.736;9.330;2022-10-31T01:55:21;8.93;;;7.40;;
2416;SDS011;1219;48.736;9.330;2022-10-31T01:57:49;9.53;;;6.43;;
2416;SDS011;1219;48.736;9.330;2022-10-31T02:00:16;15.27;;;7.63;;
2416;SDS011;1219;48.736;9.330;2022-10-31T02:02:42;9.57;;;7.00;;
2416;SDS011;1219;48.736;9.330;2022-10-31T02:05:10;9.10;;;6.93;;
2416;SDS011;1219;48.736;9.330;2022-10-31T02:07:39;6.37;;;5.77;;
2416;SDS011;1219;48.736;9.330;2022-10-31T02:10:08;8.53;;;5.90;;
2416;SDS011;1219;48.736;9.330;2022-10-31T02:12:34;7.30;;;6.37;;
2416;SDS011;1219;48.736;9.330;2022-10-31T02:15:01;6.93;;;6.33;;
2416;SDS011;1219;48.736;9.330;2022-10-31T02:17:28;11.00;;;7.37;;
2416;SDS011;1219;48.736;9.330;2022-10-31T02:20:01;8.23;;;7.43;;
2416;SDS011;1219;48.736;9.330;2022-10-31T02:22:39;8.53;;;6.43;;
2416;SDS011;1219;48.736;9.330;2022-10-31T02:28:16;7.17;;;5.90;;
2416;SDS011;1219;48.736;9.330;2022-10-31T02:33:31;7.73;;;7.07;;
2416;SDS011;1219;48.736;9.330;2022-10-31T02:36:02;10.97;;;7.37;;
2416;SDS011;1219;48.736;9.330;2022-10-31T02:41:01;8.80;;;6.20;;
2416;SDS011;1219;48.736;9.330;2022-10-31T02:43:33;9.50;;;6.30;;
2416;SDS011;1219;48.736;9.330;2022-10-31T02:46:03;8.93;;;7.87;;
2416;SDS011;1219;48.736;9.330;2022-10-31T02:48:30;8.83;;;6.87;;
2416;SDS011;1219;48.736;9.330;2022-10-31T02:50:58;8.77;;;7.90;;
2416;SDS011;1219;48.736;9.330;2022-10-31T02:53:25;9.30;;;7.00;;
2416;SDS011;1219;48.736;9.330;2022-10-31T02:58:18;10.87;;;7.43;;
2416;SDS011;1219;48.736;9.330;2022-10-31T03:01:05;10.23;;;6.57;;
2416;SDS011;1219;48.736;9.330;2022-10-31T03:03:45;10.70;;;8.13;;
2416;SDS011;1219;48.736;9.330;2022-10-31T03:08:55;10.00;;;6.53;;
2416;SDS011;1219;48.736;9.330;2022-10-31T03:11:28;8.60;;;7.70;;
2416;SDS011;1219;48.736;9.330;2022-10-31T03:13:57;7.53;;;6.73;;
2416;SDS011;1219;48.736;9.330;2022-10-31T03:16:39;12.33;;;7.20;;
2416;SDS011;1219;48.736;9.330;2022-10-31T03:19:14;8.17;;;7.30;;
2416;SDS011;1219;48.736;9.330;2022-10-31T03:21:45;13.13;;;6.77;;
2416;SDS011;1219;48.736;9.330;2022-10-31T03:24:12;9.03;;;7.00;;
2416;SDS011;1219;48.736;9.330;2022-10-31T03:26:40;9.40;;;7.60;;
2416;SDS011;1219;48.736;9.330;2022-10-31T03:29:07;8.33;;;6.20;;
2416;SDS011;1219;48.736;9.330;2022-10-31T03:31:38;9.93;;;7.20;;
2416;SDS011;1219;48.736;9.330;2022-10-31T03:34:06;8.10;;;7.27;;
2416;SDS011;1219;48.736;9.330;2022-10-31T03:36:33;8.27;;;7.00;;
2416;SDS011;1219;48.736;9.330;2022-10-31T03:39:01;10.20;;;6.90;;
2416;SDS011;1219;48.736;9.330;2022-10-31T03:41:28;9.10;;;6.37;;
2416;SDS011;1219;48.736;9.330;2022-10-31T03:43:57;14.40;;;7.63;;
2416;SDS011;1219;48.736;9.330;2022-10-31T03:46:25;11.67;;;7.80;;
2416;SDS011;1219;48.736;9.330;2022-10-31T03:48:51;8.73;;;6.27;;
2416;SDS011;1219;48.736;9.330;2022-10-31T03:51:27;9.50;;;7.30;;
2416;SDS011;1219;48.736;9.330;2022-10-31T03:53:56;6.67;;;6.00;;
2416;SDS011;1219;48.736;9.330;2022-10-31T03:59:39;9.23;;;7.50;;
2416;SDS011;1219;48.736;9.330;2022-10-31T04:01:39;9.70;;;7.50;;
2416;SDS011;1219;48.736;9.330;2022-10-31T04:04:06;11.93;;;7.70;;
2416;SDS011;1219;48.736;9.330;2022-10-31T04:06:33;8.90;;;7.30;;
2416;SDS011;1219;48.736;9.330;2022-10-31T04:09:01;7.80;;;7.00;;
2416;SDS011;1219;48.736;9.330;2022-10-31T04:11:29;9.40;;;7.90;;
2416;SDS011;1219;48.736;9.330;2022-10-31T04:13:56;7.93;;;7.23;;
2416;SDS011;1219;48.736;9.330;2022-10-31T04:16:23;11.40;;;6.93;;
2416;SDS011;1219;48.736;9.330;2022-10-31T04:18:50;8.97;;;6.10;;
2416;SDS011;1219;48.736;9.330;2022-10-31T04:21:16;9.17;;;6.97;;
2416;SDS011;1219;48.736;9.330;2022-10-31T04:23:42;7.90;;;7.00;;
2416;SDS011;1219;48.736;9.330;2022-10-31T04:26:10;9.10;;;7.50;;
2416;SDS011;1219;48.736;9.330;2022-10-31T04:28:37;13.00;;;7.77;;
2416;SDS011;1219;48.736;9.330;2022-10-31T04:31:03;8.37;;;7.53;;
2416;SDS011;1219;48.736;9.330;2022-10-31T04:33:29;8.50;;;7.63;;
2416;SDS011;1219;48.736;9.330;2022-10-31T04:35:55;8.90;;;7.20;;
2416;SDS011;1219;48.736;9.330;2022-10-31T04:38:21;9.10;;;6.57;;
2416;SDS011;1219;48.736;9.330;2022-10-31T04:40:47;7.10;;;6.60;;
2416;SDS011;1219;48.736;9.330;2022-10-31T04:43:13;11.70;;;8.30;;
2416;SDS011;1219;48.736;9.330;2022-10-31T04:45:39;9.40;;;7.63;;
2416;SDS011;1219;48.736;9.330;2022-10-31T04:48:05;11.33;;;7.80;;
2416;SDS011;1219;48.736;9.330;2022-10-31T04:50:30;8.30;;;7.13;;
2416;SDS011;1219;48.736;9.330;2022-10-31T04:52:56;11.43;;;7.10;;
2416;SDS011;1219;48.736;9.330;2022-10-31T04:55:22;8.17;;;7.30;;
2416;SDS011;1219;48.736;9.330;2022-10-31T04:57:49;12.40;;;7.23;;
2416;SDS011;1219;48.736;9.330;2022-10-31T05:00:16;8.90;;;6.93;;
2416;SDS011;1219;48.736;9.330;2022-10-31T05:02:46;10.53;;;7.13;;
2416;SDS011;1219;48.736;9.330;2022-10-31T05:05:13;8.50;;;6.83;;
2416;SDS011;1219;48.736;9.330;2022-10-31T05:07:39;11.90;;;8.43;;
2416;SDS011;1219;48.736;9.330;2022-10-31T05:10:06;10.37;;;7.70;;
2416;SDS011;1219;48.736;9.330;2022-10-31T05:12:32;8.73;;;7.00;;
2416;SDS011;1219;48.736;9.330;2022-10-31T05:14:57;9.70;;;7.67;;
2416;SDS011;1219;48.736;9.330;2022-10-31T05:17:23;7.83;;;7.20;;
2416;SDS011;1219;48.736;9.330;2022-10-31T05:19:49;8.50;;;6.70;;
2416;SDS011;1219;48.736;9.330;2022-10-31T05:22:15;13.50;;;7.00;;
2416;SDS011;1219;48.736;9.330;2022-10-31T05:24:41;9.60;;;8.00;;
2416;SDS011;1219;48.736;9.330;2022-10-31T05:27:07;9.07;;;6.97;;
2416;SDS011;1219;48.736;9.330;2022-10-31T05:29:33;7.30;;;6.70;;
2416;SDS011;1219;48.736;9.330;2022-10-31T05:31:59;6.80;;;6.20;;
2416;SDS011;1219;48.736;9.330;2022-10-31T05:34:25;7.30;;;6.47;;
2416;SDS011;1219;48.736;9.330;2022-10-31T05:36:51;8.03;;;6.40;;
2416;SDS011;1219;48.736;9.330;2022-10-31T05:39:17;9.57;;;7.30;;
2416;SDS011;1219;48.736;9.330;2022-10-31T05:41:43;8.17;;;7.37;;
2416;SDS011;1219;48.736;9.330;2022-10-31T05:44:09;12.40;;;6.70;;
2416;SDS011;1219;48.736;9.330;2022-10-31T05:46:35;7.53;;;6.67;;
2416;SDS011;1219;48.736;9.330;2022-10-31T05:49:00;7.80;;;6.80;;
2416;SDS011;1219;48.736;9.330;2022-10-31T05:51:26;8.03;;;7.30;;
2416;SDS011;1219;48.736;9.330;2022-10-31T05:53:52;10.00;;;7.03;;
2416;SDS011;1219;48.736;9.330;2022-10-31T05:56:18;9.03;;;7.00;;
2416;SDS011;1219;48.736;9.330;2022-10-31T05:58:44;10.37;;;6.87;;
2416;SDS011;1219;48.736;9.330;2022-10-31T06:01:10;7.60;;;6.63;;
2416;SDS011;1219;48.736;9.330;2022-10-31T06:03:36;10.07;;;7.63;;
2416;SDS011;1219;48.736;9.330;2022-10-31T06:06:02;10.10;;;7.67;;
2416;SDS011;1219;48.736;9.330;2022-10-31T06:08:28;8.63;;;7.30;;
2416;SDS011;1219;48.736;9.330;2022-10-31T06:10:54;12.63;;;7.07;;
2416;SDS011;1219;48.736;9.330;2022-10-31T06:13:20;10.80;;;8.40;;
2416;SDS011;1219;48.736;9.330;2022-10-31T06:15:46;8.20;;;6.70;;
2416;SDS011;1219;48.736;9.330;2022-10-31T06:18:12;8.53;;;7.23;;
2416;SDS011;1219;48.736;9.330;2022-10-31T06:20:38;8.63;;;6.90;;
2416;SDS011;1219;48.736;9.330;2022-10-31T06:23:04;8.17;;;7.33;;
2416;SDS011;1219;48.736;9.330;2022-10-31T06:25:31;11.93;;;7.60;;
2416;SDS011;1219;48.736;9.330;2022-10-31T06:27:57;11.13;;;7.90;;
2416;SDS011;1219;48.736;9.330;2022-10-31T06:30:24;10.60;;;8.07;;
2416;SDS011;1219;48.736;9.330;2022-10-31T06:32:49;10.00;;;7.60;;
2416;SDS011;1219;48.736;9.330;2022-10-31T06:35:16;9.00;;;8.17;;
2416;SDS011;1219;48.736;9.330;2022-10-31T06:37:42;10.70;;;7.87;;
2416;SDS011;1219;48.736;9.330;2022-10-31T06:40:08;10.50;;;8.90;;
2416;SDS011;1219;48.736;9.330;2022-10-31T06:42:34;9.93;;;7.53;;
2416;SDS011;1219;48.736;9.330;2022-10-31T06:45:00;7.60;;;6.80;;
2416;SDS011;1219;48.736;9.330;2022-10-31T06:47:26;10.60;;;8.67;;
2416;SDS011;1219;48.736;9.330;2022-10-31T06:49:52;10.30;;;8.47;;
2416;SDS011;1219;48.736;9.330;2022-10-31T06:52:18;8.93;;;7.27;;
2416;SDS011;1219;48.736;9.330;2022-10-31T06:54:44;11.30;;;8.40;;
2416;SDS011;1219;48.736;9.330;2022-10-31T06:57:10;10.30;;;7.00;;
2416;SDS011;1219;48.736;9.330;2022-10-31T06:59:36;10.37;;;8.40;;
2416;SDS011;1219;48.736;9.330;2022-10-31T07:02:02;11.17;;;8.10;;
2416;SDS011;1219;48.736;9.330;2022-10-31T07:04:28;13.83;;;8.60;;
2416;SDS011;1219;48.736;9.330;2022-10-31T07:06:54;8.70;;;7.40;;
2416;SDS011;1219;48.736;9.330;2022-10-31T07:09:19;11.00;;;7.70;;
2416;SDS011;1219;48.736;9.330;2022-10-31T07:11:45;10.57;;;8.43;;
2416;SDS011;1219;48.736;9.330;2022-10-31T07:14:11;12.50;;;8.97;;
2416;SDS011;1219;48.736;9.330;2022-10-31T07:16:38;10.70;;;8.83;;
2416;SDS011;1219;48.736;9.330;2022-10-31T07:19:03;13.40;;;9.00;;
2416;SDS011;1219;48.736;9.330;2022-10-31T07:21:29;9.70;;;8.70;;
2416;SDS011;1219;48.736;9.330;2022-10-31T07:23:55;15.57;;;8.90;;
2416;SDS011;1219;48.736;9.330;2022-10-31T07:26:21;11.40;;;8.63;;
2416;SDS011;1219;48.736;9.330;2022-10-31T07:28:47;10.37;;;8.30;;
2416;SDS011;1219;48.736;9.330;2022-10-31T07:31:13;13.30;;;8.17;;
2416;SDS011;1219;48.736;9.330;2022-10-31T07:33:39;14.20;;;10.20;;
2416;SDS011;1219;48.736;9.330;2022-10-31T07:36:05;23.27;;;14.80;;
2416;SDS011;1219;48.736;9.330;2022-10-31T07:38:31;19.10;;;13.80;;
2416;SDS011;1219;48.736;9.330;2022-10-31T07:40:57;13.50;;;9.97;;
2416;SDS011;1219;48.736;9.330;2022-10-31T07:43:23;12.60;;;10.20;;
2416;SDS011;1219;48.736;9.330;2022-10-31T07:45:52;21.73;;;10.57;;
2416;SDS011;1219;48.736;9.330;2022-10-31T07:48:19;17.13;;;9.83;;
2416;SDS011;1219;48.736;9.330;2022-10-31T07:50:45;14.47;;;10.60;;
2416;SDS011;1219;48.736;9.330;2022-10-31T07:53:11;18.63;;;11.30;;
2416;SDS011;1219;48.736;9.330;2022-10-31T07:55:38;24.30;;;10.83;;
2416;SDS011;1219;48.736;9.330;2022-10-31T08:00:30;19.53;;;13.33;;
2416;SDS011;1219;48.736;9.330;2022-10-31T08:03:00;18.33;;;11.90;;
2416;SDS011;1219;48.736;9.330;2022-10-31T08:05:26;16.23;;;12.03;;
2416;SDS011;1219;48.736;9.330;2022-10-31T08:07:53;20.17;;;12.17;;
2416;SDS011;1219;48.736;9.330;2022-10-31T08:10:19;22.17;;;12.50;;
2416;SDS011;1219;48.736;9.330;2022-10-31T08:12:45;15.70;;;12.23;;
2416;SDS011;1219;48.736;9.330;2022-10-31T08:15:11;20.20;;;10.40;;
2416;SDS011;1219;48.736;9.330;2022-10-31T08:17:37;16.67;;;9.47;;
2416;SDS011;1219;48.736;9.330;2022-10-31T08:20:04;20.00;;;10.43;;
2416;SDS011;1219;48.736;9.330;2022-10-31T08:22:30;12.10;;;9.47;;
2416;SDS011;1219;48.736;9.330;2022-10-31T08:24:56;13.00;;;9.40;;
2416;SDS011;1219;48.736;9.330;2022-10-31T08:27:22;9.70;;;8.63;;
2416;SDS011;1219;48.736;9.330;2022-10-31T08:29:48;16.43;;;10.70;;
2416;SDS011;1219;48.736;9.330;2022-10-31T08:32:14;10.50;;;7.87;;
2416;SDS011;1219;48.736;9.330;2022-10-31T08:34:40;10.03;;;8.90;;
2416;SDS011;1219;48.736;9.330;2022-10-31T08:37:06;9.73;;;8.77;;
2416;SDS011;1219;48.736;9.330;2022-10-31T08:39:32;9.60;;;8.57;;
2416;SDS011;1219;48.736;9.330;2022-10-31T08:41:58;15.87;;;10.37;;
2416;SDS011;1219;48.736;9.330;2022-10-31T08:44:24;12.13;;;9.80;;
2416;SDS011;1219;48.736;9.330;2022-10-31T08:46:50;10.90;;;9.67;;
2416;SDS011;1219;48.736;9.330;2022-10-31T08:49:16;13.73;;;9.57;;
2416;SDS011;1219;48.736;9.330;2022-10-31T08:51:42;11.80;;;8.07;;
2416;SDS011;1219;48.736;9.330;2022-10-31T08:54:07;10.80;;;7.50;;
2416;SDS011;1219;48.736;9.330;2022-10-31T08:56:33;12.00;;;7.23;;
2416;SDS011;1219;48.736;9.330;2022-10-31T08:58:59;7.93;;;7.13;;
2416;SDS011;1219;48.736;9.330;2022-10-31T09:01:26;9.03;;;8.10;;
2416;SDS011;1219;48.736;9.330;2022-10-31T09:03:52;13.50;;;8.67;;
2416;SDS011;1219;48.736;9.330;2022-10-31T09:06:18;10.03;;;7.80;;
2416;SDS011;1219;48.736;9.330;2022-10-31T09:08:44;7.17;;;6.57;;
2416;SDS011;1219;48.736;9.330;2022-10-31T09:11:10;7.43;;;6.70;;
2416;SDS011;1219;48.736;9.330;2022-10-31T09:13:35;7.50;;;6.77;;
2416;SDS011;1219;48.736;9.330;2022-10-31T09:16:01;11.10;;;7.83;;
2416;SDS011;1219;48.736;9.330;2022-10-31T09:18:28;10.07;;;6.93;;
2416;SDS011;1219;48.736;9.330;2022-10-31T09:20:56;7.90;;;6.73;;
2416;SDS011;1219;48.736;9.330;2022-10-31T09:23:23;7.63;;;7.00;;
2416;SDS011;1219;48.736;9.330;2022-10-31T09:25:50;9.37;;;6.70;;
2416;SDS011;1219;48.736;9.330;2022-10-31T09:28:17;8.80;;;6.10;;
2416;SDS011;1219;48.736;9.330;2022-10-31T09:30:45;8.43;;;5.87;;
2416;SDS011;1219;48.736;9.330;2022-10-31T09:33:11;6.60;;;6.00;;
2416;SDS011;1219;48.736;9.330;2022-10-31T09:35:38;9.17;;;6.27;;
2416;SDS011;1219;48.736;9.330;2022-10-31T09:38:14;6.00;;;5.40;;
2416;SDS011;1219;48.736;9.330;2022-10-31T09:45:44;8.70;;;7.70;;
2416;SDS011;1219;48.736;9.330;2022-10-31T09:48:21;10.70;;;6.70;;
2416;SDS011;1219;48.736;9.330;2022-10-31T09:50:49;8.10;;;6.60;;
2416;SDS011;1219;48.736;9.330;2022-10-31T09:53:24;7.93;;;6.20;;
2416;SDS011;1219;48.736;9.330;2022-10-31T09:55:51;7.33;;;6.73;;
2416;SDS011;1219;48.736;9.330;2022-10-31T09:58:22;10.10;;;6.97;;
2416;SDS011;1219;48.736;9.330;2022-10-31T10:00:49;12.47;;;6.13;;
2416;SDS011;1219;48.736;9.330;2022-10-31T10:06:02;6.77;;;6.17;;
2416;SDS011;1219;48.736;9.330;2022-10-31T10:08:30;9.37;;;5.43;;
2416;SDS011;1219;48.736;9.330;2022-10-31T10:11:19;9.83;;;5.50;;
2416;SDS011;1219;48.736;9.330;2022-10-31T10:14:01;11.33;;;5.53;;
2416;SDS011;1219;48.736;9.330;2022-10-31T10:16:51;8.10;;;5.53;;
2416;SDS011;1219;48.736;9.330;2022-10-31T10:32:37;6.00;;;5.03;;
2416;SDS011;1219;48.736;9.330;2022-10-31T10:35:11;6.77;;;5.13;;
2416;SDS011;1219;48.736;9.330;2022-10-31T10:37:40;8.00;;;5.33;;
2416;SDS011;1219;48.736;9.330;2022-10-31T10:40:11;6.27;;;5.40;;
2416;SDS011;1219;48.736;9.330;2022-10-31T10:42:39;5.53;;;5.00;;
2416;SDS011;1219;48.736;9.330;2022-10-31T10:45:24;10.83;;;5.00;;
2416;SDS011;1219;48.736;9.330;2022-10-31T10:50:35;9.80;;;6.70;;
2416;SDS011;1219;48.736;9.330;2022-10-31T10:55:36;6.83;;;6.10;;
2416;SDS011;1219;48.736;9.330;2022-10-31T10:58:06;6.73;;;5.37;;
2416;SDS011;1219;48.736;9.330;2022-10-31T11:00:38;6.20;;;5.60;;
2416;SDS011;1219;48.736;9.330;2022-10-31T11:03:04;7.33;;;5.97;;
2416;SDS011;1219;48.736;9.330;2022-10-31T11:05:35;6.40;;;5.87;;
2416;SDS011;1219;48.736;9.330;2022-10-31T11:08:03;11.90;;;6.03;;
2416;SDS011;1219;48.736;9.330;2022-10-31T11:10:29;8.00;;;5.60;;
2416;SDS011;1219;48.736;9.330;2022-10-31T11:15:55;6.63;;;6.00;;
2416;SDS011;1219;48.736;9.330;2022-10-31T11:18:22;7.40;;;5.83;;
2416;SDS011;1219;48.736;9.330;2022-10-31T11:20:52;10.23;;;6.50;;
2416;SDS011;1219;48.736;9.330;2022-10-31T11:23:19;5.60;;;5.10;;
2416;SDS011;1219;48.736;9.330;2022-10-31T11:25:49;10.93;;;5.50;;
2416;SDS011;1219;48.736;9.330;2022-10-31T11:28:16;9.63;;;5.50;;
2416;SDS011;1219;48.736;9.330;2022-10-31T11:30:46;8.80;;;5.97;;
2416;SDS011;1219;48.736;9.330;2022-10-31T11:33:17;6.90;;;5.77;;
2416;SDS011;1219;48.736;9.330;2022-10-31T11:35:44;7.53;;;6.00;;
2416;SDS011;1219;48.736;9.330;2022-10-31T11:38:14;9.23;;;5.93;;
2416;SDS011;1219;48.736;9.330;2022-10-31T11:40:44;9.73;;;6.13;;
2416;SDS011;1219;48.736;9.330;2022-10-31T11:43:16;7.30;;;5.73;;
2416;SDS011;1219;48.736;9.330;2022-10-31T11:45:43;7.77;;;6.40;;
2416;SDS011;1219;48.736;9.330;2022-10-31T11:48:19;7.00;;;6.30;;
2416;SDS011;1219;48.736;9.330;2022-10-31T11:50:56;6.77;;;6.07;;
2416;SDS011;1219;48.736;9.330;2022-10-31T11:55:58;8.03;;;5.77;;
2416;SDS011;1219;48.736;9.330;2022-10-31T11:58:25;6.17;;;5.53;;
2416;SDS011;1219;48.736;9.330;2022-10-31T12:00:53;9.30;;;5.97;;
2416;SDS011;1219;48.736;9.330;2022-10-31T12:05:49;7.53;;;6.73;;
2416;SDS011;1219;48.736;9.330;2022-10-31T12:08:17;8.47;;;5.90;;
2416;SDS011;1219;48.736;9.330;2022-10-31T12:16:00;11.77;;;5.63;;
2416;SDS011;1219;48.736;9.330;2022-10-31T12:23:43;12.10;;;5.83;;
2416;SDS011;1219;48.736;9.330;2022-10-31T12:31:50;5.67;;;5.20;;
2416;SDS011;1219;48.736;9.330;2022-10-31T12:34:28;6.37;;;5.30;;
2416;SDS011;1219;48.736;9.330;2022-10-31T12:37:01;8.30;;;5.40;;
2416;SDS011;1219;48.736;9.330;2022-10-31T12:49:39;7.87;;;4.90;;
2416;SDS011;1219;48.736;9.330;2022-10-31T12:57:15;8.80;;;5.30;;
2416;SDS011;1219;48.736;9.330;2022-10-31T12:59:45;8.47;;;5.50;;
2416;SDS011;1219;48.736;9.330;2022-10-31T13:04:42;9.37;;;6.20;;
2416;SDS011;1219;48.736;9.330;2022-10-31T13:07:15;9.50;;;5.90;;
2416;SDS011;1219;48.736;9.330;2022-10-31T13:09:51;6.57;;;5.60;;
2416;SDS011;1219;48.736;9.330;2022-10-31T13:12:20;7.03;;;6.40;;
2416;SDS011;1219;48.736;9.330;2022-10-31T13:14:49;9.47;;;5.87;;
2416;SDS011;1219;48.736;9.330;2022-10-31T13:17:20;12.50;;;5.90;;
2416;SDS011;1219;48.736;9.330;2022-10-31T13:19:47;6.80;;;5.40;;
2416;SDS011;1219;48.736;9.330;2022-10-31T13:22:26;6.50;;;5.90;;
2416;SDS011;1219;48.736;9.330;2022-10-31T13:24:55;11.30;;;6.20;;
2416;SDS011;1219;48.736;9.330;2022-10-31T13:27:26;6.40;;;5.80;;
2416;SDS011;1219;48.736;9.330;2022-10-31T13:30:03;8.33;;;6.57;;
2416;SDS011;1219;48.736;9.330;2022-10-31T13:35:20;9.67;;;6.17;;
2416;SDS011;1219;48.736;9.330;2022-10-31T13:37:52;10.13;;;5.87;;
2416;SDS011;1219;48.736;9.330;2022-10-31T13:42:56;8.80;;;7.10;;
2416;SDS011;1219;48.736;9.330;2022-10-31T13:45:24;11.10;;;5.10;;
2416;SDS011;1219;48.736;9.330;2022-10-31T13:47:57;11.30;;;6.60;;
2416;SDS011;1219;48.736;9.330;2022-10-31T13:50:27;14.03;;;7.77;;
2416;SDS011;1219;48.736;9.330;2022-10-31T13:53:13;10.07;;;6.30;;
2416;SDS011;1219;48.736;9.330;2022-10-31T13:58:19;8.40;;;5.50;;
2416;SDS011;1219;48.736;9.330;2022-10-31T14:00:45;7.90;;;4.70;;
2416;SDS011;1219;48.736;9.330;2022-10-31T14:03:18;9.50;;;4.87;;
2416;SDS011;1219;48.736;9.330;2022-10-31T14:05:51;7.97;;;5.77;;
2416;SDS011;1219;48.736;9.330;2022-10-31T14:08:18;16.97;;;7.10;;
2416;SDS011;1219;48.736;9.330;2022-10-31T14:10:52;6.40;;;4.10;;
2416;SDS011;1219;48.736;9.330;2022-10-31T14:13:23;9.27;;;5.90;;
2416;SDS011;1219;48.736;9.330;2022-10-31T14:16:02;14.60;;;5.87;;
2416;SDS011;1219;48.736;9.330;2022-10-31T14:20:58;9.87;;;4.73;;
2416;SDS011;1219;48.736;9.330;2022-10-31T14:28:43;9.30;;;5.27;;
2416;SDS011;1219;48.736;9.330;2022-10-31T14:36:58;5.47;;;4.87;;
2416;SDS011;1219;48.736;9.330;2022-10-31T14:52:51;7.33;;;4.63;;
2416;SDS011;1219;48.736;9.330;2022-10-31T14:55:18;8.50;;;5.40;;
2416;SDS011;1219;48.736;9.330;2022-10-31T14:57:48;8.33;;;4.80;;
2416;SDS011;1219;48.736;9.330;2022-10-31T15:00:17;9.40;;;5.30;;
2416;SDS011;1219;48.736;9.330;2022-10-31T15:05:16;8.10;;;5.20;;
2416;SDS011;1219;48.736;9.330;2022-10-31T15:07:48;5.47;;;4.00;;
2416;SDS011;1219;48.736;9.330;2022-10-31T15:10:25;5.40;;;4.50;;
2416;SDS011;1219;48.736;9.330;2022-10-31T15:12:51;5.70;;;4.70;;
2416;SDS011;1219;48.736;9.330;2022-10-31T15:15:21;6.50;;;4.47;;
2416;SDS011;1219;48.736;9.330;2022-10-31T15:18:13;7.80;;;5.60;;
2416;SDS011;1219;48.736;9.330;2022-10-31T15:20:37;5.60;;;5.07;;
2416;SDS011;1219;48.736;9.330;2022-10-31T15:23:03;6.43;;;4.57;;
2416;SDS011;1219;48.736;9.330;2022-10-31T15:25:32;7.83;;;5.07;;
2416;SDS011;1219;48.736;9.330;2022-10-31T15:27:59;6.43;;;4.57;;
2416;SDS011;1219;48.736;9.330;2022-10-31T15:30:26;9.10;;;4.63;;
2416;SDS011;1219;48.736;9.330;2022-10-31T15:32:52;5.40;;;4.60;;
2416;SDS011;1219;48.736;9.330;2022-10-31T15:35:26;8.83;;;4.77;;
2416;SDS011;1219;48.736;9.330;2022-10-31T15:37:52;8.50;;;6.10;;
2416;SDS011;1219;48.736;9.330;2022-10-31T15:40:19;14.23;;;8.53;;
2416;SDS011;1219;48.736;9.330;2022-10-31T15:43:02;20.67;;;14.90;;
2416;SDS011;1219;48.736;9.330;2022-10-31T15:45:28;19.70;;;15.63;;
2416;SDS011;1219;48.736;9.330;2022-10-31T15:47:56;14.63;;;11.53;;
2416;SDS011;1219;48.736;9.330;2022-10-31T15:50:32;13.60;;;10.60;;
2416;SDS011;1219;48.736;9.330;2022-10-31T15:53:01;13.33;;;8.93;;
2416;SDS011;1219;48.736;9.330;2022-10-31T15:55:29;13.23;;;8.80;;
2416;SDS011;1219;48.736;9.330;2022-10-31T15:57:58;15.47;;;10.80;;
2416;SDS011;1219;48.736;9.330;2022-10-31T16:00:26;12.20;;;8.77;;
2416;SDS011;1219;48.736;9.330;2022-10-31T16:05:47;13.80;;;9.13;;
2416;SDS011;1219;48.736;9.330;2022-10-31T16:08:23;10.77;;;8.07;;
2416;SDS011;1219;48.736;9.330;2022-10-31T16:10:50;20.43;;;10.20;;
2416;SDS011;1219;48.736;9.330;2022-10-31T16:13:16;11.93;;;9.00;;
2416;SDS011;1219;48.736;9.330;2022-10-31T16:15:54;13.33;;;9.10;;
2416;SDS011;1219;48.736;9.330;2022-10-31T16:18:20;9.90;;;7.97;;
2416;SDS011;1219;48.736;9.330;2022-10-31T16:20:49;15.20;;;9.10;;
2416;SDS011;1219;48.736;9.330;2022-10-31T16:23:17;12.33;;;9.27;;
2416;SDS011;1219;48.736;9.330;2022-10-31T16:25:43;12.07;;;9.57;;
2416;SDS011;1219;48.736;9.330;2022-10-31T16:28:14;16.73;;;9.97;;
2416;SDS011;1219;48.736;9.330;2022-10-31T16:30:42;13.30;;;8.57;;
2416;SDS011;1219;48.736;9.330;2022-10-31T16:33:22;11.33;;;8.30;;
2416;SDS011;1219;48.736;9.330;2022-10-31T16:35:49;11.17;;;8.07;;
2416;SDS011;1219;48.736;9.330;2022-10-31T16:38:15;11.53;;;9.00;;
2416;SDS011;1219;48.736;9.330;2022-10-31T16:40:41;13.77;;;8.40;;
2416;SDS011;1219;48.736;9.330;2022-10-31T16:43:11;15.27;;;9.70;;
2416;SDS011;1219;48.736;9.330;2022-10-31T16:45:37;11.47;;;8.20;;
2416;SDS011;1219;48.736;9.330;2022-10-31T16:48:12;14.90;;;8.30;;
2416;SDS011;1219;48.736;9.330;2022-10-31T16:50:39;13.90;;;8.20;;
2416;SDS011;1219;48.736;9.330;2022-10-31T16:53:06;14.60;;;8.50;;
2416;SDS011;1219;48.736;9.330;2022-10-31T16:55:32;9.27;;;8.30;;
2416;SDS011;1219;48.736;9.330;2022-10-31T16:58:01;15.53;;;8.27;;
2416;SDS011;1219;48.736;9.330;2022-10-31T17:00:27;9.93;;;8.13;;
2416;SDS011;1219;48.736;9.330;2022-10-31T17:02:55;9.70;;;8.70;;
2416;SDS011;1219;48.736;9.330;2022-10-31T17:05:24;13.97;;;9.57;;
2416;SDS011;1219;48.736;9.330;2022-10-31T17:07:57;14.43;;;9.73;;
2416;SDS011;1219;48.736;9.330;2022-10-31T17:10:23;15.67;;;8.73;;
2416;SDS011;1219;48.736;9.330;2022-10-31T17:12:49;15.43;;;8.50;;
2416;SDS011;1219;48.736;9.330;2022-10-31T17:15:26;12.13;;;9.30;;
2416;SDS011;1219;48.736;9.330;2022-10-31T17:17:52;13.93;;;9.30;;
2416;SDS011;1219;48.736;9.330;2022-10-31T17:20:26;9.90;;;8.90;;
2416;SDS011;1219;48.736;9.330;2022-10-31T17:22:52;10.67;;;9.50;;